createdAt,value
2022-08-24T00:00:53.660Z,85.52
2022-08-24T00:01:53.496Z,86.13
2022-08-24T00:02:53.470Z,85.93
2022-08-24T00:03:55.528Z,86.13
2022-08-24T00:04:53.377Z,86.53
2022-08-24T00:05:53.757Z,86.43
2022-08-24T00:06:53.321Z,86.73
2022-08-24T00:07:53.382Z,86.53
2022-08-24T00:08:53.317Z,86.43
2022-08-24T00:09:53.699Z,86.73
2022-08-24T00:10:53.346Z,87.04
2022-08-24T00:11:53.333Z,86.83
2022-08-24T00:12:54.124Z,87.04
2022-08-24T00:13:53.224Z,87.24
2022-08-24T00:14:53.386Z,87.44
2022-08-24T00:15:53.675Z,86.73
2022-08-24T00:16:53.721Z,87.64
2022-08-24T00:17:53.717Z,87.54
2022-08-24T00:18:53.178Z,86.63
2022-08-24T00:19:53.646Z,86.39
2022-08-24T00:20:53.137Z,86.69
2022-08-24T00:21:53.689Z,86.39
2022-08-24T00:22:53.137Z,86.25
2022-08-24T00:23:53.097Z,86.15
2022-08-24T00:24:53.154Z,85.74
2022-08-24T00:25:53.058Z,85.74
2022-08-24T00:26:53.052Z,85.50
2022-08-24T00:27:53.225Z,85.50
2022-08-24T00:28:53.037Z,85.10
2022-08-24T00:29:53.018Z,84.79
2022-08-24T00:30:53.019Z,84.39
2022-08-24T00:31:53.013Z,84.89
2022-08-24T00:32:52.987Z,84.49
2022-08-24T00:33:52.960Z,84.55
2022-08-24T00:34:58.712Z,84.45
2022-08-24T00:35:53.958Z,84.05
2022-08-24T00:36:52.901Z,84.55
2022-08-24T00:37:52.890Z,84.75
2022-08-24T00:38:52.933Z,84.95
2022-08-24T00:39:52.907Z,84.55
2022-08-24T00:40:52.863Z,84.45
2022-08-24T00:41:52.841Z,84.55
2022-08-24T00:42:52.823Z,84.65
2022-08-24T00:43:52.863Z,84.65
2022-08-24T00:44:52.823Z,84.65
2022-08-24T00:45:52.862Z,84.35
2022-08-24T00:46:52.804Z,84.65
2022-08-24T00:47:52.750Z,84.75
2022-08-24T00:48:52.774Z,84.55
2022-08-24T00:49:52.729Z,84.55
2022-08-24T00:50:52.764Z,85.05
2022-08-24T00:51:52.733Z,84.65
2022-08-24T00:52:52.744Z,84.85
2022-08-24T00:53:52.678Z,84.85
2022-08-24T00:54:52.924Z,84.95
2022-08-24T00:55:54.701Z,84.95
2022-08-24T00:56:52.657Z,85.25
2022-08-24T00:57:52.617Z,85.25
2022-08-24T00:58:56.088Z,85.16
2022-08-24T00:59:52.566Z,85.76
2022-08-24T01:00:52.723Z,85.25
2022-08-24T01:01:53.559Z,85.16
2022-08-24T01:02:53.417Z,85.25
2022-08-24T01:03:56.853Z,85.36
2022-08-24T01:04:53.481Z,85.46
2022-08-24T01:05:52.483Z,85.46
2022-08-24T01:06:53.289Z,85.56
2022-08-24T01:07:52.506Z,85.66
2022-08-24T01:08:56.798Z,85.70
2022-08-24T01:09:52.453Z,86.30
2022-08-24T01:10:52.541Z,86.21
2022-08-24T01:11:52.390Z,86.41
2022-08-24T01:13:00.087Z,86.30
2022-08-24T01:13:53.502Z,86.41
2022-08-24T01:14:53.281Z,86.51
2022-08-24T01:15:52.431Z,86.41
2022-08-24T01:16:52.395Z,86.91
2022-08-24T01:17:52.493Z,87.12
2022-08-24T01:18:53.163Z,86.95
2022-08-24T01:19:52.262Z,87.56
2022-08-24T01:20:53.227Z,87.36
2022-08-24T01:21:52.273Z,87.66
2022-08-24T01:22:53.033Z,87.66
2022-08-24T01:23:52.236Z,87.66
2022-08-24T01:24:52.215Z,87.76
2022-08-24T01:25:52.194Z,87.56
2022-08-24T01:26:53.169Z,87.66
2022-08-24T01:27:52.163Z,87.26
2022-08-24T01:28:52.174Z,87.46
2022-08-24T01:29:52.145Z,87.05
2022-08-24T01:30:52.226Z,87.56
2022-08-24T01:31:52.998Z,87.15
2022-08-24T01:32:52.107Z,87.66
2022-08-24T01:33:52.117Z,87.46
2022-08-24T01:34:52.908Z,87.56
2022-08-24T01:35:54.018Z,87.66
2022-08-24T01:36:52.589Z,87.66
2022-08-24T01:37:52.038Z,88.01
2022-08-24T01:38:52.642Z,88.21
2022-08-24T01:39:52.978Z,88.10
2022-08-24T01:40:51.998Z,88.41
2022-08-24T01:41:52.118Z,88.31
2022-08-24T01:42:51.978Z,88.61
2022-08-24T01:43:52.814Z,88.61
2022-08-24T01:44:51.958Z,88.51
2022-08-24T01:45:52.380Z,88.81
2022-08-24T01:46:52.798Z,88.81
2022-08-24T01:47:51.880Z,88.92
2022-08-24T01:48:51.885Z,89.12
2022-08-24T01:49:52.559Z,89.12
2022-08-24T01:50:51.932Z,89.52
2022-08-24T01:51:51.884Z,89.87
2022-08-24T01:53:04.790Z,90.17
2022-08-24T01:53:53.642Z,90.47
2022-08-24T01:54:52.781Z,90.47
2022-08-24T01:55:51.817Z,90.47
2022-08-24T01:56:51.773Z,90.78
2022-08-24T01:57:51.762Z,91.08
2022-08-24T01:58:52.653Z,90.94
2022-08-24T01:59:51.744Z,90.73
2022-08-24T02:00:51.723Z,90.63
2022-08-24T02:01:52.721Z,90.63
2022-08-24T02:02:51.853Z,90.33
2022-08-24T02:03:52.115Z,90.43
2022-08-24T02:04:51.693Z,90.33
2022-08-24T02:05:51.666Z,90.73
2022-08-24T02:06:51.636Z,90.83
2022-08-24T02:07:51.615Z,91.24
2022-08-24T02:08:52.457Z,91.49
2022-08-24T02:09:52.364Z,91.28
2022-08-24T02:10:56.350Z,92.60
2022-08-24T02:11:52.557Z,91.89
2022-08-24T02:12:51.578Z,93.00
2022-08-24T02:13:51.535Z,92.84
2022-08-24T02:14:51.496Z,92.64
2022-08-24T02:15:52.359Z,92.84
2022-08-24T02:16:52.458Z,93.85
2022-08-24T02:17:51.448Z,94.56
2022-08-24T02:18:51.454Z,93.55
2022-08-24T02:19:52.421Z,94.46
2022-08-24T02:20:52.331Z,94.66
2022-08-24T02:21:51.422Z,94.15
2022-08-24T02:22:51.591Z,93.95
2022-08-24T02:23:51.399Z,94.76
2022-08-24T02:24:51.429Z,94.46
2022-08-24T02:25:52.102Z,94.15
2022-08-24T02:26:51.551Z,94.06
2022-08-24T02:27:51.361Z,94.00
2022-08-24T02:28:51.326Z,93.70
2022-08-24T02:29:51.370Z,93.79
2022-08-24T02:30:51.405Z,93.90
2022-08-24T02:31:51.295Z,93.79
2022-08-24T02:32:51.305Z,94.30
2022-08-24T02:33:51.253Z,94.04
2022-08-24T02:34:52.891Z,94.75
2022-08-24T02:35:51.219Z,95.26
2022-08-24T02:36:51.202Z,95.15
2022-08-24T02:37:51.604Z,95.06
2022-08-24T02:38:51.225Z,94.85
2022-08-24T02:39:51.279Z,94.85
2022-08-24T02:40:51.146Z,95.20
2022-08-24T02:41:52.105Z,94.70
2022-08-24T02:42:52.005Z,95.20
2022-08-24T02:43:51.914Z,95.91
2022-08-24T02:44:51.145Z,96.22
2022-08-24T02:45:51.099Z,96.82
2022-08-24T02:46:51.877Z,97.23
2022-08-24T02:47:51.068Z,96.82
2022-08-24T02:48:58.112Z,96.77
2022-08-24T02:49:52.662Z,97.17
2022-08-24T02:50:51.605Z,97.58
2022-08-24T02:51:51.067Z,97.47
2022-08-24T02:52:51.027Z,97.78
2022-08-24T02:53:51.002Z,97.67
2022-08-24T02:54:50.979Z,97.58
2022-08-24T02:55:50.949Z,96.97
2022-08-24T02:56:50.969Z,97.38
2022-08-24T02:57:51.384Z,97.38
2022-08-24T02:58:53.182Z,96.97
2022-08-24T02:59:50.941Z,97.07
2022-08-24T03:00:50.984Z,97.07
2022-08-24T03:01:50.952Z,97.27
2022-08-24T03:02:51.766Z,97.27
2022-08-24T03:03:50.851Z,97.17
2022-08-24T03:04:50.870Z,97.17
2022-08-24T03:05:51.596Z,97.38
2022-08-24T03:06:51.753Z,97.42
2022-08-24T03:07:52.341Z,97.83
2022-08-24T03:08:54.656Z,97.72
2022-08-24T03:09:52.742Z,97.72
2022-08-24T03:10:51.656Z,97.92
2022-08-24T03:11:51.564Z,98.33
2022-08-24T03:12:50.771Z,98.33
2022-08-24T03:13:51.593Z,98.63
2022-08-24T03:14:50.705Z,99.04
2022-08-24T03:15:50.791Z,99.04
2022-08-24T03:16:50.685Z,99.04
2022-08-24T03:17:51.465Z,98.84
2022-08-24T03:18:50.697Z,98.74
2022-08-24T03:19:51.525Z,98.74
2022-08-24T03:20:50.614Z,98.84
2022-08-24T03:21:50.595Z,98.94
2022-08-24T03:22:51.497Z,98.84
2022-08-24T03:23:51.401Z,98.74
2022-08-24T03:24:51.316Z,98.94
2022-08-24T03:25:51.513Z,98.79
2022-08-24T03:26:50.525Z,98.88
2022-08-24T03:27:50.566Z,98.68
2022-08-24T03:28:51.430Z,98.18
2022-08-24T03:29:51.356Z,97.97
2022-08-24T03:30:51.288Z,98.18
2022-08-24T03:31:51.399Z,98.58
2022-08-24T03:32:51.298Z,98.88
2022-08-24T03:33:50.476Z,99.08
2022-08-24T03:34:51.379Z,99.19
2022-08-24T03:35:50.740Z,99.08
2022-08-24T03:36:50.412Z,98.88
2022-08-24T03:37:50.572Z,98.83
2022-08-24T03:38:50.429Z,98.93
2022-08-24T03:39:50.437Z,99.13
2022-08-24T03:40:50.456Z,99.24
2022-08-24T03:41:50.751Z,99.13
2022-08-24T03:42:50.480Z,99.33
2022-08-24T03:43:50.291Z,99.54
2022-08-24T03:44:50.443Z,99.64
2022-08-24T03:45:50.348Z,99.89
2022-08-24T03:46:50.982Z,99.99
2022-08-24T03:47:50.309Z,99.99
2022-08-24T03:48:51.045Z,99.99
2022-08-24T03:49:50.796Z,99.99
2022-08-24T03:50:50.214Z,99.99
2022-08-24T03:51:51.019Z,99.99
2022-08-24T03:52:50.920Z,99.99
2022-08-24T03:53:51.085Z,99.99
2022-08-24T03:54:50.983Z,99.99
2022-08-24T03:55:50.884Z,99.99
2022-08-24T03:56:51.044Z,99.99
2022-08-24T03:57:50.066Z,99.99
2022-08-24T03:58:50.104Z,99.99
2022-08-24T03:59:50.135Z,99.99
2022-08-24T04:00:50.157Z,99.99
2022-08-24T04:01:50.836Z,99.99
2022-08-24T04:02:50.154Z,99.99
2022-08-24T04:03:50.045Z,99.99
2022-08-24T04:04:50.056Z,99.99
2022-08-24T04:05:50.018Z,99.99
2022-08-24T04:06:49.957Z,99.99
2022-08-24T04:07:49.948Z,99.99
2022-08-24T04:08:50.931Z,99.99
2022-08-24T04:09:50.827Z,99.99
2022-08-24T04:10:51.991Z,99.99
2022-08-24T04:11:52.047Z,99.99
2022-08-24T04:12:49.902Z,99.99
2022-08-24T04:13:50.697Z,99.99
2022-08-24T04:14:50.674Z,99.99
2022-08-24T04:15:50.762Z,99.99
2022-08-24T04:16:52.771Z,99.99
2022-08-24T04:17:50.849Z,99.99
2022-08-24T04:18:49.781Z,99.99
2022-08-24T04:19:50.029Z,99.99
2022-08-24T04:20:49.924Z,99.99
2022-08-24T04:21:50.701Z,99.99
2022-08-24T04:22:50.602Z,99.99
2022-08-24T04:23:50.502Z,99.99
2022-08-24T04:24:50.672Z,99.99
2022-08-24T04:25:50.571Z,99.99
2022-08-24T04:26:50.473Z,99.99
2022-08-24T04:27:49.962Z,99.99
2022-08-24T04:28:50.537Z,99.99
2022-08-24T04:29:49.653Z,99.99
2022-08-24T04:30:50.606Z,99.99
2022-08-24T04:31:50.555Z,99.99
2022-08-24T04:32:49.592Z,99.99
2022-08-24T04:33:54.021Z,99.99
2022-08-24T04:34:49.588Z,99.99
2022-08-24T04:35:49.531Z,99.99
2022-08-24T04:36:49.537Z,99.99
2022-08-24T04:37:49.556Z,99.99
2022-08-24T04:38:50.345Z,99.99
2022-08-24T04:39:50.566Z,99.99
2022-08-24T04:40:50.404Z,99.99
2022-08-24T04:41:50.502Z,99.99
2022-08-24T04:42:49.446Z,99.99
2022-08-24T04:43:50.379Z,99.99
2022-08-24T04:44:49.627Z,99.99
2022-08-24T04:45:49.434Z,99.99
2022-08-24T04:46:50.346Z,99.99
2022-08-24T04:47:50.253Z,99.99
2022-08-24T04:48:49.705Z,99.99
2022-08-24T04:49:50.309Z,99.99
2022-08-24T04:50:49.358Z,99.99
2022-08-24T04:51:49.712Z,99.99
2022-08-24T04:52:49.659Z,99.99
2022-08-24T04:53:50.180Z,99.99
2022-08-24T04:54:49.279Z,99.99
2022-08-24T04:55:50.253Z,99.99
2022-08-24T04:56:49.256Z,99.99
2022-08-24T04:57:49.289Z,99.99
2022-08-24T04:58:49.231Z,99.99
2022-08-24T04:59:50.120Z,99.99
2022-08-24T05:00:49.295Z,99.99
2022-08-24T05:01:49.793Z,99.99
2022-08-24T05:02:49.223Z,99.99
2022-08-24T05:03:49.138Z,99.99
2022-08-24T05:04:49.672Z,99.99
2022-08-24T05:05:49.209Z,99.99
2022-08-24T05:06:53.020Z,99.96
2022-08-24T05:07:56.050Z,99.96
2022-08-24T05:08:50.077Z,99.86
2022-08-24T05:09:49.082Z,99.66
2022-08-24T05:10:49.074Z,99.61
2022-08-24T05:11:50.297Z,99.51
2022-08-24T05:12:49.895Z,99.41
2022-08-24T05:13:50.984Z,99.41
2022-08-24T05:14:49.045Z,99.41
2022-08-24T05:15:49.905Z,99.26
2022-08-24T05:16:52.609Z,99.16
2022-08-24T05:17:50.938Z,99.05
2022-08-24T05:18:49.045Z,99.05
2022-08-24T05:19:49.596Z,99.05
2022-08-24T05:20:48.957Z,99.05
2022-08-24T05:21:48.936Z,99.05
2022-08-24T05:22:52.999Z,98.91
2022-08-24T05:23:49.870Z,98.91
2022-08-24T05:24:49.027Z,98.91
2022-08-24T05:25:48.918Z,98.91
2022-08-24T05:26:48.850Z,98.81
2022-08-24T05:27:49.738Z,98.81
2022-08-24T05:28:49.639Z,98.66
2022-08-24T05:29:48.808Z,98.66
2022-08-24T05:30:51.182Z,98.46
2022-08-24T05:31:49.183Z,98.56
2022-08-24T05:32:48.781Z,98.46
2022-08-24T05:33:49.669Z,98.46
2022-08-24T05:34:48.739Z,98.36
2022-08-24T05:35:49.479Z,98.41
2022-08-24T05:36:49.646Z,98.31
2022-08-24T05:37:49.540Z,98.31
2022-08-24T05:38:48.660Z,98.21
2022-08-24T05:39:48.659Z,98.21
2022-08-24T05:40:48.671Z,98.11
2022-08-24T05:41:48.672Z,97.86
2022-08-24T05:42:48.640Z,97.45
2022-08-24T05:43:48.617Z,97.25
2022-08-24T05:44:49.383Z,97.21
2022-08-24T05:45:48.606Z,97.01
2022-08-24T05:46:48.679Z,96.60
2022-08-24T05:47:50.476Z,96.80
2022-08-24T05:48:52.666Z,96.80
2022-08-24T05:49:49.414Z,96.91
2022-08-24T05:50:48.514Z,97.16
2022-08-24T05:51:48.473Z,97.47
2022-08-24T05:52:49.385Z,97.92
2022-08-24T05:53:48.448Z,97.62
2022-08-24T05:54:49.195Z,97.17
2022-08-24T05:55:48.423Z,96.62
2022-08-24T05:56:48.413Z,95.57
2022-08-24T05:57:49.157Z,94.52
2022-08-24T05:58:49.317Z,93.27
2022-08-24T05:59:48.978Z,92.11
2022-08-24T06:00:48.326Z,91.06
2022-08-24T06:01:49.392Z,90.42
2022-08-24T06:02:48.472Z,89.67
2022-08-24T06:03:48.668Z,89.33
2022-08-24T06:04:48.746Z,88.18
2022-08-24T06:05:48.498Z,87.34
2022-08-24T06:06:48.922Z,86.94
2022-08-24T06:07:49.340Z,86.10
2022-08-24T06:08:49.134Z,85.85
2022-08-24T06:09:49.034Z,85.35
2022-08-24T06:10:48.208Z,84.91
2022-08-24T06:11:49.096Z,84.41
2022-08-24T06:12:49.001Z,84.27
2022-08-24T06:13:48.869Z,83.47
2022-08-24T06:14:49.134Z,83.03
2022-08-24T06:16:11.039Z,82.93
2022-08-24T06:16:49.769Z,82.39
2022-08-24T06:17:49.068Z,81.79
2022-08-24T06:18:48.938Z,81.39
2022-08-24T06:19:48.842Z,81.45
2022-08-24T06:20:48.062Z,80.41
2022-08-24T06:21:48.904Z,80.21
2022-08-24T06:22:48.040Z,80.11
2022-08-24T06:23:48.968Z,79.68
2022-08-24T06:24:48.878Z,79.58
2022-08-24T06:25:48.777Z,79.58
2022-08-24T06:26:49.118Z,79.44
2022-08-24T06:27:49.941Z,78.94
2022-08-24T06:28:47.974Z,79.10
2022-08-24T06:29:48.812Z,78.50
2022-08-24T06:30:48.728Z,78.20
2022-08-24T06:31:49.233Z,77.97
2022-08-24T06:32:49.131Z,77.47
2022-08-24T06:33:48.778Z,77.37
2022-08-24T06:34:48.680Z,76.57
2022-08-24T06:35:48.852Z,76.54
2022-08-24T06:36:48.749Z,76.43
2022-08-24T06:37:48.648Z,76.54
2022-08-24T06:38:49.789Z,76.24
2022-08-24T06:39:47.894Z,75.70
2022-08-24T06:40:48.827Z,75.40
2022-08-24T06:41:48.772Z,75.44
2022-08-24T06:42:48.692Z,75.54
2022-08-24T06:43:48.582Z,76.24
2022-08-24T06:44:48.496Z,76.00
2022-08-24T06:45:48.651Z,75.50
2022-08-24T06:46:48.615Z,75.57
2022-08-24T06:47:48.456Z,75.27
2022-08-24T06:48:48.615Z,74.63
2022-08-24T06:49:48.520Z,73.87
2022-08-24T06:50:48.426Z,74.17
2022-08-24T06:51:50.773Z,74.13
2022-08-24T06:52:47.647Z,74.24
2022-08-24T06:53:48.417Z,73.54
2022-08-24T06:54:47.725Z,72.94
2022-08-24T06:55:49.047Z,73.90
2022-08-24T06:56:47.589Z,73.60
2022-08-24T06:57:52.347Z,72.81
2022-08-24T06:58:48.431Z,72.47
2022-08-24T06:59:47.528Z,72.08
2022-08-24T07:00:48.488Z,72.08
2022-08-24T07:01:49.469Z,72.17
2022-08-24T07:02:48.370Z,71.45
2022-08-24T07:03:47.483Z,71.41
2022-08-24T07:04:47.462Z,71.22
2022-08-24T07:05:47.456Z,70.22
2022-08-24T07:06:48.424Z,70.12
2022-08-24T07:07:48.339Z,69.92
2022-08-24T07:08:48.244Z,70.22
2022-08-24T07:09:48.393Z,69.43
2022-08-24T07:10:48.297Z,69.32
2022-08-24T07:11:48.204Z,69.39
2022-08-24T07:12:49.298Z,68.60
2022-08-24T07:13:48.268Z,69.09
2022-08-24T07:14:48.182Z,69.09
2022-08-24T07:15:47.371Z,68.66
2022-08-24T07:16:47.294Z,68.46
2022-08-24T07:17:47.267Z,68.24
2022-08-24T07:18:50.134Z,67.64
2022-08-24T07:19:47.746Z,67.54
2022-08-24T07:20:47.727Z,67.54
2022-08-24T07:21:48.007Z,67.24
2022-08-24T07:22:47.337Z,66.85
2022-08-24T07:23:47.476Z,66.61
2022-08-24T07:24:47.388Z,66.82
2022-08-24T07:25:50.464Z,66.28
2022-08-24T07:26:47.166Z,65.79
2022-08-24T07:27:47.949Z,66.09
2022-08-24T07:28:49.070Z,65.46
2022-08-24T07:29:56.253Z,65.46
2022-08-24T07:30:48.639Z,65.13
2022-08-24T07:31:47.228Z,64.64
2022-08-24T07:32:47.724Z,64.31
2022-08-24T07:33:47.092Z,64.11
2022-08-24T07:34:49.007Z,63.92
2022-08-24T07:35:47.136Z,63.68
2022-08-24T07:36:47.086Z,63.56
2022-08-24T07:37:48.016Z,62.87
2022-08-24T07:38:47.003Z,62.96
2022-08-24T07:39:47.192Z,62.47
2022-08-24T07:41:09.305Z,61.88
2022-08-24T07:42:11.632Z,62.37
2022-08-24T07:42:47.979Z,62.57
2022-08-24T07:43:47.052Z,62.57
2022-08-24T07:44:47.847Z,62.14
2022-08-24T07:45:47.748Z,62.04
2022-08-24T07:46:47.078Z,61.32
2022-08-24T07:47:54.620Z,61.03
2022-08-24T07:48:56.092Z,61.00
2022-08-24T07:49:48.652Z,60.24
2022-08-24T07:50:48.388Z,60.36
2022-08-24T07:51:47.277Z,60.69
2022-08-24T07:52:46.812Z,61.25
2022-08-24T07:53:54.522Z,61.35
2022-08-24T07:54:47.840Z,61.25
2022-08-24T07:55:46.771Z,61.16
2022-08-24T07:56:46.883Z,60.66
2022-08-24T07:57:47.661Z,61.72
2022-08-24T07:58:47.536Z,61.79
2022-08-24T07:59:47.689Z,61.26
2022-08-24T08:00:46.744Z,60.57
2022-08-24T08:01:47.765Z,60.15
2022-08-24T08:02:47.770Z,58.34
2022-08-24T08:03:46.755Z,58.94
2022-08-24T08:04:46.658Z,57.95
2022-08-24T08:05:46.628Z,58.05
2022-08-24T08:06:47.541Z,58.57
2022-08-24T08:07:51.629Z,58.57
2022-08-24T08:08:46.599Z,58.37
2022-08-24T08:09:47.501Z,58.97
2022-08-24T08:10:46.621Z,58.77
2022-08-24T08:11:51.490Z,58.94
2022-08-24T08:12:46.691Z,58.45
2022-08-24T08:13:46.617Z,58.02
2022-08-24T08:14:46.520Z,58.12
2022-08-24T08:15:46.592Z,57.63
2022-08-24T08:16:47.105Z,57.33
2022-08-24T08:17:46.594Z,57.53
2022-08-24T08:18:52.393Z,57.82
2022-08-24T08:19:47.803Z,58.05
2022-08-24T08:20:46.423Z,57.95
2022-08-24T08:21:46.437Z,58.02
2022-08-24T08:22:46.816Z,58.42
2022-08-24T08:23:48.272Z,57.04
2022-08-24T08:24:46.419Z,58.22
2022-08-24T08:25:47.476Z,57.75
2022-08-24T08:26:46.626Z,58.42
2022-08-24T08:27:46.369Z,57.53
2022-08-24T08:28:46.328Z,57.43
2022-08-24T08:29:46.327Z,57.79
2022-08-24T08:30:46.353Z,56.91
2022-08-24T08:31:47.180Z,57.31
2022-08-24T08:32:46.429Z,57.28
2022-08-24T08:33:47.239Z,56.00
2022-08-24T08:34:47.140Z,56.00
2022-08-24T08:35:47.051Z,55.70
2022-08-24T08:36:47.680Z,55.41
2022-08-24T08:37:46.220Z,56.32
2022-08-24T08:38:46.182Z,56.62
2022-08-24T08:39:46.361Z,56.52
2022-08-24T08:40:46.214Z,56.71
2022-08-24T08:41:46.183Z,56.91
2022-08-24T08:42:46.241Z,56.29
2022-08-24T08:43:46.225Z,55.60
2022-08-24T08:44:46.194Z,55.97
2022-08-24T08:45:46.257Z,55.65
2022-08-24T08:46:46.097Z,55.62
2022-08-24T08:47:46.917Z,54.81
2022-08-24T08:48:46.825Z,54.41
2022-08-24T08:49:46.127Z,54.39
2022-08-24T08:50:46.056Z,53.50
2022-08-24T08:51:46.166Z,53.09
2022-08-24T08:52:47.015Z,52.59
2022-08-24T08:53:45.989Z,52.30
2022-08-24T08:54:46.010Z,52.80
2022-08-24T08:55:45.971Z,53.26
2022-08-24T08:56:45.969Z,52.94
2022-08-24T08:57:46.729Z,52.45
2022-08-24T08:58:46.782Z,52.15
2022-08-24T08:59:47.265Z,52.55
2022-08-24T09:00:46.694Z,51.27
2022-08-24T09:01:46.894Z,52.06
2022-08-24T09:02:45.918Z,51.17
2022-08-24T09:03:45.877Z,51.56
2022-08-24T09:04:45.940Z,51.66
2022-08-24T09:05:45.832Z,51.37
2022-08-24T09:06:45.844Z,50.95
2022-08-24T09:07:46.794Z,50.29
2022-08-24T09:08:52.217Z,51.17
2022-08-24T09:09:46.827Z,51.20
2022-08-24T09:10:46.782Z,51.00
2022-08-24T09:11:47.707Z,51.29
2022-08-24T09:12:45.747Z,50.42
2022-08-24T09:13:46.745Z,51.56
2022-08-24T09:14:46.647Z,51.37
2022-08-24T09:15:46.542Z,51.27
2022-08-24T09:16:45.749Z,50.66
2022-08-24T09:17:45.659Z,51.03
2022-08-24T09:18:46.501Z,50.73
2022-08-24T09:19:46.410Z,49.26
2022-08-24T09:20:46.575Z,50.90
2022-08-24T09:21:45.625Z,48.94
2022-08-24T09:22:46.371Z,48.85
2022-08-24T09:23:46.548Z,49.31
2022-08-24T09:24:45.582Z,48.24
2022-08-24T09:25:46.346Z,48.90
2022-08-24T09:26:45.574Z,49.68
2022-08-24T09:27:46.405Z,48.19
2022-08-24T09:28:46.747Z,46.67
2022-08-24T09:29:45.845Z,48.63
2022-08-24T09:30:45.613Z,46.98
2022-08-24T09:31:46.006Z,49.43
2022-08-24T09:32:46.470Z,47.89
2022-08-24T09:33:46.345Z,49.75
2022-08-24T09:34:47.450Z,50.12
2022-08-24T09:35:46.410Z,47.55
2022-08-24T09:36:45.451Z,47.85
2022-08-24T09:37:46.220Z,49.31
2022-08-24T09:38:46.380Z,48.90
2022-08-24T09:39:45.409Z,50.27
2022-08-24T09:40:47.378Z,49.48
2022-08-24T09:41:45.369Z,48.80
2022-08-24T09:42:46.249Z,47.33
2022-08-24T09:43:45.341Z,48.02
2022-08-24T09:44:46.316Z,48.70
2022-08-24T09:45:45.354Z,47.89
2022-08-24T09:46:45.313Z,48.09
2022-08-24T09:47:45.633Z,47.97
2022-08-24T09:48:46.182Z,46.97
2022-08-24T09:49:45.268Z,48.32
2022-08-24T09:50:46.244Z,47.90
2022-08-24T09:51:45.255Z,46.63
2022-08-24T09:52:46.055Z,45.07
2022-08-24T09:53:46.218Z,45.48
2022-08-24T09:54:45.849Z,45.87
2022-08-24T09:55:45.814Z,46.17
2022-08-24T09:56:45.894Z,46.95
2022-08-24T09:58:00.027Z,46.26
2022-08-24T09:58:46.156Z,44.53
2022-08-24T09:59:45.179Z,45.92
2022-08-24T10:00:45.159Z,45.55
2022-08-24T10:01:45.156Z,46.53
2022-08-24T10:02:45.453Z,46.14
2022-08-24T10:03:45.122Z,45.65
2022-08-24T10:04:45.263Z,45.75
2022-08-24T10:05:45.145Z,47.41
2022-08-24T10:06:45.096Z,46.36
2022-08-24T10:07:45.069Z,46.62
2022-08-24T10:08:45.154Z,47.48
2022-08-24T10:09:45.042Z,48.16
2022-08-24T10:10:45.049Z,45.33
2022-08-24T10:11:45.811Z,46.89
2022-08-24T10:12:45.020Z,46.60
2022-08-24T10:13:45.031Z,45.31
2022-08-24T10:14:46.957Z,47.17
2022-08-24T10:15:44.995Z,47.46
2022-08-24T10:16:46.022Z,46.50
2022-08-24T10:17:45.704Z,46.31
2022-08-24T10:18:44.915Z,46.82
2022-08-24T10:19:44.940Z,45.75
2022-08-24T10:20:46.808Z,46.16
2022-08-24T10:21:45.889Z,46.84
2022-08-24T10:22:45.737Z,46.75
2022-08-24T10:23:44.841Z,46.04
2022-08-24T10:24:44.840Z,46.33
2022-08-24T10:25:45.705Z,44.28
2022-08-24T10:26:45.609Z,46.11
2022-08-24T10:27:44.846Z,45.70
2022-08-24T10:28:45.675Z,43.46
2022-08-24T10:29:45.579Z,41.80
2022-08-24T10:30:45.762Z,42.68
2022-08-24T10:31:45.674Z,41.99
2022-08-24T10:32:45.543Z,42.75
2022-08-24T10:33:44.832Z,42.85
2022-08-24T10:34:44.714Z,44.90
2022-08-24T10:35:44.674Z,43.88
2022-08-24T10:36:45.674Z,41.71
2022-08-24T10:37:44.657Z,42.40
2022-08-24T10:38:45.479Z,40.42
2022-08-24T10:39:44.687Z,41.69
2022-08-24T10:40:45.629Z,38.67
2022-08-24T10:41:45.449Z,38.67
2022-08-24T10:42:44.644Z,40.11
2022-08-24T10:43:44.621Z,39.24
2022-08-24T10:44:44.742Z,39.14
2022-08-24T10:45:48.114Z,40.23
2022-08-24T10:46:45.016Z,39.94
2022-08-24T10:47:45.390Z,41.01
2022-08-24T10:48:44.676Z,40.50
2022-08-24T10:49:44.510Z,38.57
2022-08-24T10:50:45.355Z,39.26
2022-08-24T10:51:44.513Z,39.75
2022-08-24T10:52:44.491Z,41.50
2022-08-24T10:53:44.508Z,41.01
2022-08-24T10:54:45.223Z,40.13
2022-08-24T10:55:44.425Z,41.11
2022-08-24T10:56:44.416Z,38.75
2022-08-24T10:57:45.206Z,39.65
2022-08-24T10:58:44.429Z,40.81
2022-08-24T10:59:45.255Z,39.84
2022-08-24T11:00:44.436Z,39.06
2022-08-24T11:01:45.329Z,39.84
2022-08-24T11:02:44.369Z,38.57
2022-08-24T11:03:44.396Z,41.69
2022-08-24T11:04:44.316Z,40.03
2022-08-24T11:05:45.201Z,40.25
2022-08-24T11:06:44.346Z,41.79
2022-08-24T11:07:45.258Z,39.82
2022-08-24T11:08:45.159Z,38.15
2022-08-24T11:09:44.742Z,39.12
2022-08-24T11:10:45.246Z,39.92
2022-08-24T11:11:44.211Z,41.28
2022-08-24T11:12:44.239Z,40.88
2022-08-24T11:13:44.224Z,39.90
2022-08-24T11:14:45.098Z,40.85
2022-08-24T11:15:45.003Z,39.20
2022-08-24T11:16:44.236Z,40.06
2022-08-24T11:17:45.064Z,38.96
2022-08-24T11:18:44.984Z,37.80
2022-08-24T11:19:44.879Z,39.18
2022-08-24T11:20:44.126Z,38.98
2022-08-24T11:21:44.095Z,37.62
2022-08-24T11:22:46.057Z,39.67
2022-08-24T11:23:44.066Z,37.62
2022-08-24T11:24:44.066Z,38.77
2022-08-24T11:25:44.821Z,39.06
2022-08-24T11:26:44.968Z,38.09
2022-08-24T11:27:44.871Z,38.09
2022-08-24T11:28:44.040Z,38.11
2022-08-24T11:29:44.945Z,38.50
2022-08-24T11:30:43.990Z,37.80
2022-08-24T11:31:44.011Z,37.41
2022-08-24T11:32:44.914Z,38.87
2022-08-24T11:33:45.950Z,37.41
2022-08-24T11:34:43.931Z,37.98
2022-08-24T11:35:43.962Z,36.71
2022-08-24T11:36:43.954Z,37.68
2022-08-24T11:37:43.931Z,37.57
2022-08-24T11:38:45.770Z,36.21
2022-08-24T11:39:43.928Z,36.30
2022-08-24T11:40:44.652Z,36.58
2022-08-24T11:41:44.814Z,36.77
2022-08-24T11:42:43.838Z,36.99
2022-08-24T11:43:43.837Z,36.40
2022-08-24T11:44:44.787Z,36.50
2022-08-24T11:45:43.807Z,38.15
2022-08-24T11:46:44.596Z,36.38
2022-08-24T11:47:43.815Z,37.74
2022-08-24T11:48:44.649Z,37.07
2022-08-24T11:49:43.760Z,35.80
2022-08-24T11:50:44.720Z,36.66
2022-08-24T11:51:44.616Z,37.03
2022-08-24T11:52:44.529Z,35.38
2022-08-24T11:53:44.682Z,35.96
2022-08-24T11:54:43.719Z,35.01
2022-08-24T11:55:46.679Z,35.32
2022-08-24T11:56:43.681Z,35.90
2022-08-24T11:57:44.032Z,36.95
2022-08-24T11:58:43.772Z,35.86
2022-08-24T11:59:43.764Z,36.04
2022-08-24T12:00:43.737Z,34.97
2022-08-24T12:01:44.723Z,36.06
2022-08-24T12:02:43.717Z,34.51
2022-08-24T12:03:43.672Z,35.38
2022-08-24T12:04:43.731Z,34.14
2022-08-24T12:05:43.728Z,34.64
2022-08-24T12:06:43.684Z,35.24
2022-08-24T12:07:43.544Z,37.18
2022-08-24T12:08:45.401Z,35.90
2022-08-24T12:09:43.527Z,36.27
2022-08-24T12:10:43.532Z,34.61
2022-08-24T12:11:43.579Z,33.33
2022-08-24T12:12:43.678Z,33.62
2022-08-24T12:13:43.525Z,34.80
2022-08-24T12:14:44.459Z,34.02
2022-08-24T12:15:43.580Z,34.14
2022-08-24T12:16:43.505Z,35.01
2022-08-24T12:17:43.447Z,34.31
2022-08-24T12:18:43.893Z,34.99
2022-08-24T12:19:43.509Z,36.33
2022-08-24T12:20:44.410Z,33.81
2022-08-24T12:21:43.530Z,33.81
2022-08-24T12:22:43.362Z,34.20
2022-08-24T12:23:43.481Z,35.83
2022-08-24T12:24:43.565Z,35.07
2022-08-24T12:25:43.602Z,34.67
2022-08-24T12:26:43.424Z,36.04
2022-08-24T12:27:43.723Z,33.52
2022-08-24T12:28:43.796Z,34.96
2022-08-24T12:29:43.374Z,33.87
2022-08-24T12:30:43.538Z,34.71
2022-08-24T12:31:43.304Z,33.94
2022-08-24T12:32:44.006Z,33.36
2022-08-24T12:33:43.414Z,33.47
2022-08-24T12:34:43.445Z,32.49
2022-08-24T12:35:43.265Z,32.89
2022-08-24T12:36:43.216Z,34.34
2022-08-24T12:37:43.316Z,33.86
2022-08-24T12:38:43.662Z,33.36
2022-08-24T12:39:43.271Z,32.87
2022-08-24T12:40:43.299Z,34.33
2022-08-24T12:41:43.181Z,33.65
2022-08-24T12:42:45.120Z,32.79
2022-08-24T12:43:43.104Z,33.80
2022-08-24T12:44:43.250Z,34.09
2022-08-24T12:45:43.240Z,33.78
2022-08-24T12:46:43.419Z,34.07
2022-08-24T12:47:43.080Z,33.57
2022-08-24T12:48:43.510Z,33.44
2022-08-24T12:49:43.501Z,33.33
2022-08-24T12:50:45.356Z,32.06
2022-08-24T12:51:43.035Z,30.82
2022-08-24T12:52:43.085Z,31.59